sensor_id;sensor_type;location;lat;lon;timestamp;pressure;altitude;pressure_sealevel;temperature;humidity
33554;BME280;19885;42.208;24.952;2023-09-30T00:01:44;100097.34;;;21.53;62.39
33554;BME280;19885;42.208;24.952;2023-09-30T00:04:10;100095.53;;;21.54;63.60
33554;BME280;19885;42.208;24.952;2023-09-30T00:06:36;100097.38;;;21.52;62.00
33554;BME280;19885;42.208;24.952;2023-09-30T00:09:01;100096.13;;;21.37;62.74
33554;BME280;19885;42.208;24.952;2023-09-30T00:11:27;100103.97;;;21.14;63.15
33554;BME280;19885;42.208;24.952;2023-09-30T00:13:52;100098.31;;;21.24;63.46
33554;BME280;19885;42.208;24.952;2023-09-30T00:16:17;100099.03;;;21.29;62.10
33554;BME280;19885;42.208;24.952;2023-09-30T00:18:43;100099.28;;;21.22;62.24
33554;BME280;19885;42.208;24.952;2023-09-30T00:21:09;100094.06;;;20.91;63.36
33554;BME280;19885;42.208;24.952;2023-09-30T00:23:35;100074.97;;;20.52;63.26
33554;BME280;19885;42.208;24.952;2023-09-30T00:26:00;100097.31;;;20.99;63.91
33554;BME280;19885;42.208;24.952;2023-09-30T00:28:26;100095.81;;;21.20;63.36
33554;BME280;19885;42.208;24.952;2023-09-30T00:30:51;100096.47;;;21.26;62.68
33554;BME280;19885;42.208;24.952;2023-09-30T00:33:16;100097.44;;;21.24;63.58
33554;BME280;19885;42.208;24.952;2023-09-30T00:35:42;100101.84;;;20.68;64.89
33554;BME280;19885;42.208;24.952;2023-09-30T00:38:07;100098.09;;;20.75;65.30
33554;BME280;19885;42.208;24.952;2023-09-30T00:40:33;100099.66;;;20.82;63.95
33554;BME280;19885;42.208;24.952;2023-09-30T00:43:00;100100.69;;;20.78;63.41
33554;BME280;19885;42.208;24.952;2023-09-30T00:45:26;100087.94;;;20.61;64.13
33554;BME280;19885;42.208;24.952;2023-09-30T00:47:51;100088.50;;;20.43;63.38
33554;BME280;19885;42.208;24.952;2023-09-30T00:50:18;100101.94;;;20.65;64.16
33554;BME280;19885;42.208;24.952;2023-09-30T00:52:44;100096.91;;;20.85;63.13
33554;BME280;19885;42.208;24.952;2023-09-30T00:55:10;100100.31;;;20.89;63.43
33554;BME280;19885;42.208;24.952;2023-09-30T00:57:36;100101.88;;;20.96;64.22
33554;BME280;19885;42.208;24.952;2023-09-30T01:00:02;100100.97;;;20.69;64.56
33554;BME280;19885;42.208;24.952;2023-09-30T01:02:28;100099.97;;;20.44;64.51
33554;BME280;19885;42.208;24.952;2023-09-30T01:04:53;100099.13;;;20.71;64.19
33554;BME280;19885;42.208;24.952;2023-09-30T01:07:20;100100.75;;;20.75;65.50
33554;BME280;19885;42.208;24.952;2023-09-30T01:09:47;100102.72;;;20.69;65.06
33554;BME280;19885;42.208;24.952;2023-09-30T01:12:12;100101.38;;;20.55;64.73
33554;BME280;19885;42.208;24.952;2023-09-30T01:14:38;100106.47;;;20.61;64.82
33554;BME280;19885;42.208;24.952;2023-09-30T01:17:04;100104.84;;;20.57;64.91
33554;BME280;19885;42.208;24.952;2023-09-30T01:19:33;100107.56;;;20.54;65.64
33554;BME280;19885;42.208;24.952;2023-09-30T01:21:59;100104.03;;;20.54;66.78
33554;BME280;19885;42.208;24.952;2023-09-30T01:24:28;100110.34;;;20.50;65.38
33554;BME280;19885;42.208;24.952;2023-09-30T01:26:53;100106.22;;;20.40;65.24
33554;BME280;19885;42.208;24.952;2023-09-30T01:29:19;100100.38;;;20.29;66.23
33554;BME280;19885;42.208;24.952;2023-09-30T01:31:44;100098.69;;;20.26;66.21
33554;BME280;19885;42.208;24.952;2023-09-30T01:34:13;100102.63;;;20.12;66.45
33554;BME280;19885;42.208;24.952;2023-09-30T01:36:38;100106.34;;;19.72;67.75
33554;BME280;19885;42.208;24.952;2023-09-30T01:39:03;100092.75;;;19.86;66.99
33554;BME280;19885;42.208;24.952;2023-09-30T01:41:29;100097.41;;;19.76;67.08
33554;BME280;19885;42.208;24.952;2023-09-30T01:43:56;100096.00;;;19.65;67.68
33554;BME280;19885;42.208;24.952;2023-09-30T01:46:21;100088.34;;;19.86;67.38
33554;BME280;19885;42.208;24.952;2023-09-30T01:48:47;100090.41;;;19.75;66.44
33554;BME280;19885;42.208;24.952;2023-09-30T01:51:15;100098.66;;;19.63;67.41
33554;BME280;19885;42.208;24.952;2023-09-30T01:53:40;100084.53;;;19.64;67.35
33554;BME280;19885;42.208;24.952;2023-09-30T01:56:06;100083.31;;;19.77;67.10
33554;BME280;19885;42.208;24.952;2023-09-30T01:58:31;100086.94;;;19.73;68.22
33554;BME280;19885;42.208;24.952;2023-09-30T02:01:01;100089.59;;;19.73;67.13
33554;BME280;19885;42.208;24.952;2023-09-30T02:03:27;100078.91;;;19.76;67.83
33554;BME280;19885;42.208;24.952;2023-09-30T02:05:54;100075.63;;;19.68;67.42
33554;BME280;19885;42.208;24.952;2023-09-30T02:08:19;100083.34;;;19.07;69.43
33554;BME280;19885;42.208;24.952;2023-09-30T02:10:44;100081.59;;;19.06;68.54
33554;BME280;19885;42.208;24.952;2023-09-30T02:13:10;100077.13;;;19.09;67.16
33554;BME280;19885;42.208;24.952;2023-09-30T02:15:35;100081.28;;;19.18;68.24
33554;BME280;19885;42.208;24.952;2023-09-30T02:18:00;100081.06;;;19.27;67.40
33554;BME280;19885;42.208;24.952;2023-09-30T02:20:26;100079.22;;;18.95;68.91
33554;BME280;19885;42.208;24.952;2023-09-30T02:22:55;100090.81;;;18.90;67.90
33554;BME280;19885;42.208;24.952;2023-09-30T02:25:20;100076.03;;;18.41;68.95
33554;BME280;19885;42.208;24.952;2023-09-30T02:27:45;100081.44;;;17.94;70.87
33554;BME280;19885;42.208;24.952;2023-09-30T04:03:24;100083.75;;;17.63;75.08
33554;BME280;19885;42.208;24.952;2023-09-30T04:05:49;100087.47;;;17.50;74.67
33554;BME280;19885;42.208;24.952;2023-09-30T04:08:15;100081.50;;;17.41;75.08
33554;BME280;19885;42.208;24.952;2023-09-30T04:10:42;100091.78;;;17.04;76.66
33554;BME280;19885;42.208;24.952;2023-09-30T04:13:08;100087.34;;;16.47;79.23
33554;BME280;19885;42.208;24.952;2023-09-30T04:15:33;100074.88;;;16.61;79.05
33554;BME280;19885;42.208;24.952;2023-09-30T04:18:00;100090.53;;;16.70;78.37
33554;BME280;19885;42.208;24.952;2023-09-30T04:20:25;100079.22;;;16.63;79.66
33554;BME280;19885;42.208;24.952;2023-09-30T04:22:52;100086.22;;;16.67;79.46
33554;BME280;19885;42.208;24.952;2023-09-30T04:25:22;100080.38;;;16.44;80.28
33554;BME280;19885;42.208;24.952;2023-09-30T04:27:49;100079.44;;;16.48;80.76
33554;BME280;19885;42.208;24.952;2023-09-30T04:30:15;100082.84;;;16.56;80.86
33554;BME280;19885;42.208;24.952;2023-09-30T04:32:41;100083.13;;;16.35;80.86
33554;BME280;19885;42.208;24.952;2023-09-30T04:35:07;100093.78;;;16.23;80.97
33554;BME280;19885;42.208;24.952;2023-09-30T04:37:35;100088.88;;;15.93;83.17
33554;BME280;19885;42.208;24.952;2023-09-30T04:40:04;100093.28;;;15.92;83.41
33554;BME280;19885;42.208;24.952;2023-09-30T04:42:40;100094.94;;;15.99;83.93
33554;BME280;19885;42.208;24.952;2023-09-30T04:45:06;100095.84;;;15.98;83.95
33554;BME280;19885;42.208;24.952;2023-09-30T04:47:32;100104.72;;;15.90;84.71
33554;BME280;19885;42.208;24.952;2023-09-30T04:49:58;100108.00;;;16.07;85.39
33554;BME280;19885;42.208;24.952;2023-09-30T04:52:23;100103.47;;;16.18;83.59
33554;BME280;19885;42.208;24.952;2023-09-30T04:54:52;100104.19;;;16.32;83.44
33554;BME280;19885;42.208;24.952;2023-09-30T10:20:44;100046.56;;;26.98;32.54
33554;BME280;19885;42.208;24.952;2023-09-30T10:23:18;100041.47;;;27.09;33.59
33554;BME280;19885;42.208;24.952;2023-09-30T10:25:46;100048.09;;;27.17;34.58
33554;BME280;19885;42.208;24.952;2023-09-30T10:33:33;100026.53;;;27.50;31.26
33554;BME280;19885;42.208;24.952;2023-09-30T10:35:58;100033.25;;;27.57;30.69
33554;BME280;19885;42.208;24.952;2023-09-30T10:41:00;100031.44;;;27.72;30.73
33554;BME280;19885;42.208;24.952;2023-09-30T10:43:38;100021.25;;;28.06;32.77
33554;BME280;19885;42.208;24.952;2023-09-30T10:46:05;100015.44;;;28.00;34.10
33554;BME280;19885;42.208;24.952;2023-09-30T10:48:49;100014.94;;;28.21;35.30
33554;BME280;19885;42.208;24.952;2023-09-30T10:51:18;100010.19;;;28.67;34.67
33554;BME280;19885;42.208;24.952;2023-09-30T10:53:53;100006.56;;;28.95;30.25
33554;BME280;19885;42.208;24.952;2023-09-30T10:56:22;100008.78;;;28.62;29.89
33554;BME280;19885;42.208;24.952;2023-09-30T10:58:48;100001.19;;;28.95;32.81
33554;BME280;19885;42.208;24.952;2023-09-30T11:01:17;99996.78;;;28.67;30.05
33554;BME280;19885;42.208;24.952;2023-09-30T11:03:43;100000.16;;;28.43;28.26
33554;BME280;19885;42.208;24.952;2023-09-30T11:06:15;100000.13;;;28.57;28.73
33554;BME280;19885;42.208;24.952;2023-09-30T11:08:55;99992.06;;;28.98;29.25
33554;BME280;19885;42.208;24.952;2023-09-30T11:11:36;99978.28;;;28.63;27.03
33554;BME280;19885;42.208;24.952;2023-09-30T11:14:02;99986.03;;;28.67;27.58
33554;BME280;19885;42.208;24.952;2023-09-30T11:16:39;99988.56;;;29.10;28.59
33554;BME280;19885;42.208;24.952;2023-09-30T11:19:05;99978.09;;;29.19;28.54
33554;BME280;19885;42.208;24.952;2023-09-30T11:21:32;99976.75;;;28.73;28.93
33554;BME280;19885;42.208;24.952;2023-09-30T11:23:58;99977.00;;;28.82;28.85
33554;BME280;19885;42.208;24.952;2023-09-30T11:31:37;99979.13;;;28.22;29.39
33554;BME280;19885;42.208;24.952;2023-09-30T11:34:03;99974.34;;;28.13;30.99
33554;BME280;19885;42.208;24.952;2023-09-30T11:36:34;99976.13;;;28.41;29.84
33554;BME280;19885;42.208;24.952;2023-09-30T11:39:00;99963.63;;;28.27;28.55
33554;BME280;19885;42.208;24.952;2023-09-30T11:41:35;99971.50;;;28.02;28.45
33554;BME280;19885;42.208;24.952;2023-09-30T11:44:04;99971.56;;;28.15;28.15
33554;BME280;19885;42.208;24.952;2023-09-30T11:49:03;99960.69;;;28.59;29.19
33554;BME280;19885;42.208;24.952;2023-09-30T11:51:30;99944.25;;;28.90;28.63
33554;BME280;19885;42.208;24.952;2023-09-30T11:53:56;99948.16;;;28.72;27.95
33554;BME280;19885;42.208;24.952;2023-09-30T11:56:23;99954.53;;;28.71;28.13
33554;BME280;19885;42.208;24.952;2023-09-30T11:58:53;99945.56;;;28.84;28.02
33554;BME280;19885;42.208;24.952;2023-09-30T12:01:18;99941.94;;;28.98;27.01
33554;BME280;19885;42.208;24.952;2023-09-30T12:03:45;99948.38;;;28.95;27.75
33554;BME280;19885;42.208;24.952;2023-09-30T12:06:12;99946.44;;;28.98;27.85
33554;BME280;19885;42.208;24.952;2023-09-30T12:08:39;99934.75;;;28.99;27.07
33554;BME280;19885;42.208;24.952;2023-09-30T12:11:04;99927.78;;;29.09;26.61
33554;BME280;19885;42.208;24.952;2023-09-30T12:13:29;99929.47;;;28.97;27.25
33554;BME280;19885;42.208;24.952;2023-09-30T12:15:55;99929.06;;;29.03;27.34
33554;BME280;19885;42.208;24.952;2023-09-30T12:18:22;99930.88;;;29.03;26.50
33554;BME280;19885;42.208;24.952;2023-09-30T12:20:52;99925.84;;;29.11;26.15
33554;BME280;19885;42.208;24.952;2023-09-30T12:23:18;99923.59;;;29.05;26.83
33554;BME280;19885;42.208;24.952;2023-09-30T12:25:45;99920.66;;;28.95;26.39
33554;BME280;19885;42.208;24.952;2023-09-30T12:28:10;99916.78;;;28.99;27.22
33554;BME280;19885;42.208;24.952;2023-09-30T12:30:36;99917.47;;;29.03;26.12
33554;BME280;19885;42.208;24.952;2023-09-30T12:33:01;99913.16;;;29.00;26.53
33554;BME280;19885;42.208;24.952;2023-09-30T12:35:26;99912.53;;;29.09;26.17
33554;BME280;19885;42.208;24.952;2023-09-30T12:37:52;99910.28;;;29.03;26.40
33554;BME280;19885;42.208;24.952;2023-09-30T12:40:17;99906.06;;;28.99;26.35
33554;BME280;19885;42.208;24.952;2023-09-30T12:42:43;99903.06;;;28.91;26.07
33554;BME280;19885;42.208;24.952;2023-09-30T12:45:09;99899.84;;;29.11;27.60
33554;BME280;19885;42.208;24.952;2023-09-30T12:47:35;99898.66;;;29.03;26.28
33554;BME280;19885;42.208;24.952;2023-09-30T12:50:00;99893.69;;;28.84;27.06
33554;BME280;19885;42.208;24.952;2023-09-30T12:52:25;99887.44;;;28.83;26.86
33554;BME280;19885;42.208;24.952;2023-09-30T12:54:50;99894.84;;;28.53;26.61
33554;BME280;19885;42.208;24.952;2023-09-30T12:57:16;99889.88;;;28.47;26.98
33554;BME280;19885;42.208;24.952;2023-09-30T16:50:36;99914.88;;;24.48;46.10
33554;BME280;19885;42.208;24.952;2023-09-30T16:53:05;99915.19;;;24.42;46.03
33554;BME280;19885;42.208;24.952;2023-09-30T16:55:33;99920.09;;;24.32;42.86
33554;BME280;19885;42.208;24.952;2023-09-30T17:00:33;99923.28;;;23.64;42.03
33554;BME280;19885;42.208;24.952;2023-09-30T17:02:59;99922.44;;;23.82;41.99
33554;BME280;19885;42.208;24.952;2023-09-30T17:05:24;99930.06;;;23.90;43.15
33554;BME280;19885;42.208;24.952;2023-09-30T17:07:50;99924.94;;;23.85;47.82
33554;BME280;19885;42.208;24.952;2023-09-30T17:10:15;99931.22;;;23.84;43.51
33554;BME280;19885;42.208;24.952;2023-09-30T17:12:41;99935.03;;;23.79;42.86
33554;BME280;19885;42.208;24.952;2023-09-30T17:15:06;99935.31;;;23.73;45.18
33554;BME280;19885;42.208;24.952;2023-09-30T17:17:32;99944.75;;;23.80;46.61
33554;BME280;19885;42.208;24.952;2023-09-30T17:19:58;99938.41;;;23.82;45.70
33554;BME280;19885;42.208;24.952;2023-09-30T17:22:23;99942.22;;;23.77;47.10
33554;BME280;19885;42.208;24.952;2023-09-30T17:24:49;99946.03;;;23.71;47.23
33554;BME280;19885;42.208;24.952;2023-09-30T17:27:14;99948.50;;;23.56;44.82
33554;BME280;19885;42.208;24.952;2023-09-30T17:29:42;99949.78;;;23.47;42.17
33554;BME280;19885;42.208;24.952;2023-09-30T17:34:42;99965.53;;;23.52;41.66
33554;BME280;19885;42.208;24.952;2023-09-30T17:37:07;99954.22;;;23.67;45.71
33554;BME280;19885;42.208;24.952;2023-09-30T17:39:33;99958.47;;;23.71;46.88
33554;BME280;19885;42.208;24.952;2023-09-30T17:41:58;99963.88;;;23.49;44.93
33554;BME280;19885;42.208;24.952;2023-09-30T17:44:23;99962.00;;;23.51;43.49
33554;BME280;19885;42.208;24.952;2023-09-30T17:49:24;99969.75;;;23.37;43.97
33554;BME280;19885;42.208;24.952;2023-09-30T17:51:49;99978.25;;;23.45;42.88
33554;BME280;19885;42.208;24.952;2023-09-30T17:54:14;99981.72;;;23.47;46.48
33554;BME280;19885;42.208;24.952;2023-09-30T18:01:50;99978.75;;;23.33;45.80
33554;BME280;19885;42.208;24.952;2023-09-30T18:04:15;99980.69;;;23.29;49.87
33554;BME280;19885;42.208;24.952;2023-09-30T18:06:40;99979.31;;;23.21;46.85
33554;BME280;19885;42.208;24.952;2023-09-30T18:09:06;99983.06;;;23.15;48.64
33554;BME280;19885;42.208;24.952;2023-09-30T18:11:33;99988.06;;;23.03;48.29
33554;BME280;19885;42.208;24.952;2023-09-30T18:13:58;99992.69;;;22.54;46.49
33554;BME280;19885;42.208;24.952;2023-09-30T18:16:24;99993.94;;;22.67;46.60
33554;BME280;19885;42.208;24.952;2023-09-30T18:18:50;99991.25;;;22.69;45.23
33554;BME280;19885;42.208;24.952;2023-09-30T18:23:53;99996.88;;;22.61;45.54
33554;BME280;19885;42.208;24.952;2023-09-30T18:26:18;99996.03;;;22.59;46.39
33554;BME280;19885;42.208;24.952;2023-09-30T18:28:43;99991.69;;;22.57;44.72
33554;BME280;19885;42.208;24.952;2023-09-30T18:31:08;99988.16;;;22.56;45.61
33554;BME280;19885;42.208;24.952;2023-09-30T18:33:36;99989.91;;;22.57;46.38
33554;BME280;19885;42.208;24.952;2023-09-30T18:36:02;99991.81;;;22.54;45.72
33554;BME280;19885;42.208;24.952;2023-09-30T18:38:27;99991.09;;;22.50;46.16
33554;BME280;19885;42.208;24.952;2023-09-30T18:40:53;99995.03;;;22.17;46.67
33554;BME280;19885;42.208;24.952;2023-09-30T18:43:18;99988.66;;;21.75;46.85
33554;BME280;19885;42.208;24.952;2023-09-30T18:45:46;99997.63;;;21.48;47.67
33554;BME280;19885;42.208;24.952;2023-09-30T18:48:12;99989.16;;;21.86;47.50
33554;BME280;19885;42.208;24.952;2023-09-30T18:50:45;99993.03;;;22.00;48.20
33554;BME280;19885;42.208;24.952;2023-09-30T18:53:11;99990.25;;;22.03;47.66
33554;BME280;19885;42.208;24.952;2023-09-30T18:55:49;99992.97;;;22.02;47.55
33554;BME280;19885;42.208;24.952;2023-09-30T18:58:14;99996.44;;;22.04;50.17
33554;BME280;19885;42.208;24.952;2023-09-30T19:00:40;100004.47;;;22.02;49.73
33554;BME280;19885;42.208;24.952;2023-09-30T19:03:07;99999.16;;;22.02;49.21
33554;BME280;19885;42.208;24.952;2023-09-30T19:05:35;100005.88;;;21.88;47.95
33554;BME280;19885;42.208;24.952;2023-09-30T19:08:01;99996.59;;;21.99;48.76
33554;BME280;19885;42.208;24.952;2023-09-30T19:10:27;100005.09;;;22.09;48.36
33554;BME280;19885;42.208;24.952;2023-09-30T19:12:53;100006.53;;;22.18;47.14
33554;BME280;19885;42.208;24.952;2023-09-30T19:15:22;100006.31;;;22.24;44.28
33554;BME280;19885;42.208;24.952;2023-09-30T19:17:50;100005.28;;;22.28;46.71
33554;BME280;19885;42.208;24.952;2023-09-30T19:20:15;100005.44;;;22.23;46.88
33554;BME280;19885;42.208;24.952;2023-09-30T19:22:43;100008.22;;;22.20;45.76
33554;BME280;19885;42.208;24.952;2023-09-30T19:25:08;100006.59;;;22.16;45.09
33554;BME280;19885;42.208;24.952;2023-09-30T19:27:34;100006.50;;;22.19;45.34
33554;BME280;19885;42.208;24.952;2023-09-30T19:29:59;100005.91;;;22.11;44.20
33554;BME280;19885;42.208;24.952;2023-09-30T19:32:25;100006.00;;;22.08;46.32
33554;BME280;19885;42.208;24.952;2023-09-30T19:34:51;100004.47;;;22.02;44.63
33554;BME280;19885;42.208;24.952;2023-09-30T19:37:16;100011.56;;;22.02;45.05
33554;BME280;19885;42.208;24.952;2023-09-30T19:39:41;100010.84;;;21.97;44.55
33554;BME280;19885;42.208;24.952;2023-09-30T19:42:09;100013.75;;;21.91;44.84
33554;BME280;19885;42.208;24.952;2023-09-30T19:44:35;100010.19;;;21.92;45.26
33554;BME280;19885;42.208;24.952;2023-09-30T19:47:04;100017.03;;;21.97;45.33
33554;BME280;19885;42.208;24.952;2023-09-30T19:49:32;100010.84;;;21.97;46.24
33554;BME280;19885;42.208;24.952;2023-09-30T19:51:57;100009.50;;;21.87;47.06
33554;BME280;19885;42.208;24.952;2023-09-30T19:54:23;100005.19;;;21.83;47.97
33554;BME280;19885;42.208;24.952;2023-09-30T19:56:48;100008.91;;;21.77;46.70
33554;BME280;19885;42.208;24.952;2023-09-30T19:59:14;100012.97;;;21.63;47.91
33554;BME280;19885;42.208;24.952;2023-09-30T20:01:39;100022.69;;;21.64;47.45
33554;BME280;19885;42.208;24.952;2023-09-30T20:04:06;100016.66;;;21.59;46.96
33554;BME280;19885;42.208;24.952;2023-09-30T20:06:32;100023.66;;;21.37;47.94
33554;BME280;19885;42.208;24.952;2023-09-30T20:08:57;100020.03;;;21.39;47.17
33554;BME280;19885;42.208;24.952;2023-09-30T20:11:26;100014.19;;;21.29;46.17
33554;BME280;19885;42.208;24.952;2023-09-30T20:13:53;100014.13;;;21.31;48.75
33554;BME280;19885;42.208;24.952;2023-09-30T20:16:19;100011.44;;;21.33;48.35
33554;BME280;19885;42.208;24.952;2023-09-30T20:18:44;100020.34;;;21.30;47.87
33554;BME280;19885;42.208;24.952;2023-09-30T20:21:10;100011.03;;;21.18;48.07
33554;BME280;19885;42.208;24.952;2023-09-30T20:23:36;100023.16;;;20.44;49.78
33554;BME280;19885;42.208;24.952;2023-09-30T20:26:01;100018.16;;;20.35;49.94
33554;BME280;19885;42.208;24.952;2023-09-30T20:28:29;100020.19;;;20.54;49.22
33554;BME280;19885;42.208;24.952;2023-09-30T20:30:55;100012.66;;;20.12;50.29
33554;BME280;19885;42.208;24.952;2023-09-30T20:33:21;100011.31;;;20.28;49.94
33554;BME280;19885;42.208;24.952;2023-09-30T20:35:48;100016.56;;;20.57;49.13
33554;BME280;19885;42.208;24.952;2023-09-30T20:38:16;100006.59;;;20.65;48.58
33554;BME280;19885;42.208;24.952;2023-09-30T20:40:41;100010.53;;;20.80;48.78
33554;BME280;19885;42.208;24.952;2023-09-30T20:43:07;100007.00;;;20.79;48.40
33554;BME280;19885;42.208;24.952;2023-09-30T20:45:32;100002.72;;;21.01;48.14
33554;BME280;19885;42.208;24.952;2023-09-30T20:47:58;100004.13;;;20.87;47.83
33554;BME280;19885;42.208;24.952;2023-09-30T20:50:25;99997.84;;;20.89;47.41
33554;BME280;19885;42.208;24.952;2023-09-30T20:52:54;99996.53;;;20.76;48.52
33554;BME280;19885;42.208;24.952;2023-09-30T20:55:20;100004.28;;;20.54;49.19
33554;BME280;19885;42.208;24.952;2023-09-30T20:57:45;100007.81;;;20.55;48.48
33554;BME280;19885;42.208;24.952;2023-09-30T21:00:10;100001.34;;;20.36;49.37
33554;BME280;19885;42.208;24.952;2023-09-30T21:02:38;100001.41;;;20.04;50.33
33554;BME280;19885;42.208;24.952;2023-09-30T21:05:03;100003.34;;;19.99;50.30
33554;BME280;19885;42.208;24.952;2023-09-30T21:07:31;99999.59;;;20.06;50.11
33554;BME280;19885;42.208;24.952;2023-09-30T21:09:59;99996.09;;;20.04;50.38
33554;BME280;19885;42.208;24.952;2023-09-30T21:12:24;99993.84;;;19.91;50.94
33554;BME280;19885;42.208;24.952;2023-09-30T21:14:51;99997.91;;;19.74;52.58
33554;BME280;19885;42.208;24.952;2023-09-30T21:17:19;99991.47;;;19.82;51.85
33554;BME280;19885;42.208;24.952;2023-09-30T21:19:44;99987.34;;;20.02;51.78
33554;BME280;19885;42.208;24.952;2023-09-30T21:22:10;99993.25;;;20.11;50.58
33554;BME280;19885;42.208;24.952;2023-09-30T21:24:35;99986.44;;;19.73;51.83
33554;BME280;19885;42.208;24.952;2023-09-30T21:27:02;99983.81;;;19.72;51.94
33554;BME280;19885;42.208;24.952;2023-09-30T21:29:27;99978.00;;;19.90;51.92
33554;BME280;19885;42.208;24.952;2023-09-30T21:31:53;99975.19;;;20.25;50.65
33554;BME280;19885;42.208;24.952;2023-09-30T21:34:20;99982.22;;;20.26;51.06
33554;BME280;19885;42.208;24.952;2023-09-30T21:36:48;99985.50;;;20.34;50.30
33554;BME280;19885;42.208;24.952;2023-09-30T21:39:16;99983.91;;;20.29;50.64
33554;BME280;19885;42.208;24.952;2023-09-30T21:41:41;99988.81;;;20.12;50.75
33554;BME280;19885;42.208;24.952;2023-09-30T21:44:07;99978.03;;;20.18;51.80
33554;BME280;19885;42.208;24.952;2023-09-30T21:46:32;99980.88;;;20.41;50.79
33554;BME280;19885;42.208;24.952;2023-09-30T21:48:58;99977.50;;;20.63;49.81
33554;BME280;19885;42.208;24.952;2023-09-30T21:51:23;99979.09;;;20.69;50.39
33554;BME280;19885;42.208;24.952;2023-09-30T21:53:48;99974.09;;;20.86;51.29
33554;BME280;19885;42.208;24.952;2023-09-30T21:56:14;99980.34;;;20.85;50.20
33554;BME280;19885;42.208;24.952;2023-09-30T21:58:39;99983.72;;;20.89;49.67
33554;BME280;19885;42.208;24.952;2023-09-30T22:01:07;99991.53;;;20.93;50.22
33554;BME280;19885;42.208;24.952;2023-09-30T22:03:34;99988.47;;;20.79;50.76
33554;BME280;19885;42.208;24.952;2023-09-30T22:06:00;99994.22;;;20.38;50.65
33554;BME280;19885;42.208;24.952;2023-09-30T22:08:25;99989.06;;;20.33;49.92
33554;BME280;19885;42.208;24.952;2023-09-30T22:10:54;99997.81;;;20.63;50.18
33554;BME280;19885;42.208;24.952;2023-09-30T22:13:20;99992.06;;;20.78;50.02
33554;BME280;19885;42.208;24.952;2023-09-30T22:15:45;99993.97;;;20.73;50.16
33554;BME280;19885;42.208;24.952;2023-09-30T22:18:10;99997.03;;;20.03;50.44
33554;BME280;19885;42.208;24.952;2023-09-30T22:20:41;100002.53;;;19.97;50.35
33554;BME280;19885;42.208;24.952;2023-09-30T22:23:07;100000.81;;;19.94;50.29
33554;BME280;19885;42.208;24.952;2023-09-30T22:25:32;100004.19;;;19.99;50.67
33554;BME280;19885;42.208;24.952;2023-09-30T22:28:03;100001.72;;;20.24;51.49
33554;BME280;19885;42.208;24.952;2023-09-30T22:30:28;100008.03;;;20.18;52.73
33554;BME280;19885;42.208;24.952;2023-09-30T22:32:55;100000.81;;;19.94;53.31
33554;BME280;19885;42.208;24.952;2023-09-30T22:35:21;100013.38;;;19.86;54.57
33554;BME280;19885;42.208;24.952;2023-09-30T22:37:46;100009.69;;;19.62;55.20
33554;BME280;19885;42.208;24.952;2023-09-30T22:40:12;100008.25;;;19.49;55.76
33554;BME280;19885;42.208;24.952;2023-09-30T22:42:40;100001.88;;;19.56;54.86
33554;BME280;19885;42.208;24.952;2023-09-30T22:45:08;100005.03;;;19.38;56.37
33554;BME280;19885;42.208;24.952;2023-09-30T22:47:47;100009.66;;;18.95;57.97
33554;BME280;19885;42.208;24.952;2023-09-30T22:50:13;100010.22;;;18.74;56.79
33554;BME280;19885;42.208;24.952;2023-09-30T22:52:39;100005.81;;;18.73;57.91
33554;BME280;19885;42.208;24.952;2023-09-30T22:55:14;100001.19;;;18.82;57.00
33554;BME280;19885;42.208;24.952;2023-09-30T22:57:43;100003.50;;;18.59;57.26
33554;BME280;19885;42.208;24.952;2023-09-30T23:00:08;100008.22;;;18.46;57.00
33554;BME280;19885;42.208;24.952;2023-09-30T23:02:34;100006.09;;;18.61;57.77
33554;BME280;19885;42.208;24.952;2023-09-30T23:05:00;100005.38;;;18.54;58.42
33554;BME280;19885;42.208;24.952;2023-09-30T23:07:29;99998.78;;;18.73;57.83
33554;BME280;19885;42.208;24.952;2023-09-30T23:09:57;100008.66;;;18.64;58.36
33554;BME280;19885;42.208;24.952;2023-09-30T23:12:23;100007.06;;;18.57;57.21
33554;BME280;19885;42.208;24.952;2023-09-30T23:14:49;100011.84;;;18.78;57.18
33554;BME280;19885;42.208;24.952;2023-09-30T23:17:14;99997.84;;;18.74;58.11
33554;BME280;19885;42.208;24.952;2023-09-30T23:19:41;100004.34;;;18.96;57.13
33554;BME280;19885;42.208;24.952;2023-09-30T23:22:06;99999.59;;;18.75;57.86
33554;BME280;19885;42.208;24.952;2023-09-30T23:24:38;99995.66;;;18.91;56.41
33554;BME280;19885;42.208;24.952;2023-09-30T23:27:03;99994.56;;;19.00;57.03
33554;BME280;19885;42.208;24.952;2023-09-30T23:29:41;99991.66;;;18.75;58.09
33554;BME280;19885;42.208;24.952;2023-09-30T23:32:07;100000.88;;;18.19;59.83
33554;BME280;19885;42.208;24.952;2023-09-30T23:34:32;99994.22;;;18.02;59.67
33554;BME280;19885;42.208;24.952;2023-09-30T23:36:58;99995.94;;;18.42;59.38
33554;BME280;19885;42.208;24.952;2023-09-30T23:39:28;99997.41;;;18.57;59.93
33554;BME280;19885;42.208;24.952;2023-09-30T23:41:56;99998.19;;;18.61;59.53
33554;BME280;19885;42.208;24.952;2023-09-30T23:44:21;99991.03;;;18.66;58.50
33554;BME280;19885;42.208;24.952;2023-09-30T23:46:47;99986.34;;;18.77;58.42
33554;BME280;19885;42.208;24.952;2023-09-30T23:49:15;99991.94;;;18.65;58.86
33554;BME280;19885;42.208;24.952;2023-09-30T23:51:43;99992.97;;;18.18;60.04
33554;BME280;19885;42.208;24.952;2023-09-30T23:54:09;99993.75;;;17.81;61.86
33554;BME280;19885;42.208;24.952;2023-09-30T23:56:36;99984.06;;;18.23;61.71
33554;BME280;19885;42.208;24.952;2023-09-30T23:59:04;99987.22;;;18.39;60.49
